Disraeli, Canada
Current Conditions -  °F | °C
As of 6:17 AM on Sunday 23 Nov 2014 (Local Time) from CYSC Reporting Station
Light Rain Light Rain  
Wind Chill: 37°   Ceiling: 600
Heat Index: 37°   Visibility: 0.75mi
Dew Point: 37°   Wind: 3mph
Humidity: 100%   Direction: 210°SSW
Pressure: 29.97"   Gusts: NA
Location:  45.9°N, 71.35°W
Report Text: CYSC 231117Z AUTO 21003KT 3/4SM -RA BR BKN006 OVC012 03/03 A2997 RMK SLP158
Loading
Personal Weather Stations






























Interactive Weather Map New forecast layout! Learn more

10-Day Weather Forecast

Advertisements
Track Severe Weather on mobile